General Aviation Weather

Text Reports

Enter one or more of the following location identifiers separated by a space:

Zip Code, Four-Character ICAO or Three-Character IATA airport codes.

METAR - Aviation Routine Weather Report
KJOT - Joliet, Illinois
Updated at 4:35 PM GMT on January 30, 2015 (10:35 AM CST):
METAR KJOT 301635Z AUTO 00000KT 10SM CLR M03/M13 A3054 RMK AO2 T10351128
TAF - Terminal Area Forecast
KJOT - Joliet, Illinois
Updated at 4:35 PM GMT on January 30, 2015 (10:35 AM CST):
No TAF is currently available for this location.
Decoded:
No decoded TAF is available.
PIREP - Pilot Weather Report
KJOT - Joliet, Illinois
Updated at 4:35 PM GMT on January 30, 2015 (10:35 AM CST):
No PIREP is currently available for this location.
AIRMET - Airmens Meteorological Information
KJOT - Joliet, Illinois
Updated at 4:35 PM GMT on January 30, 2015 (10:35 AM CST):
No AIRMET is currently available for this location.
SIGMET - Significant Meteorological Information
KJOT - Joliet, Illinois
Updated at 4:35 PM GMT on January 30, 2015 (10:35 AM CST):
No SIGMET is currently available for this location.
NOTAM - Notice to Airmen
KJOT - Joliet, Illinois
Updated at 4:35 PM GMT on January 30, 2015 (10:35 AM CST):
No NOTAM is currently available for this location.
Forecast Area
KJOT - Joliet, Illinois
Updated at 4:35 PM GMT on January 30, 2015 (10:35 AM CST):
No NOTAM is currently available for this location.
Aviation Weather Maps